createdAt,value
2022-09-20T04:21:47.857Z,100355.00
2022-09-20T04:25:06.920Z,100357.00
2022-09-20T04:28:34.351Z,100366.66
2022-09-20T04:31:49.813Z,100363.91
2022-09-20T04:35:23.623Z,100359.28
2022-09-20T04:38:26.979Z,100361.78
2022-09-20T04:42:15.402Z,100362.03
2022-09-20T04:45:55.342Z,100377.03
2022-09-20T04:49:09.337Z,100377.66
2022-09-20T04:52:46.306Z,100388.28
2022-09-20T04:55:55.038Z,100390.44
2022-09-20T04:59:09.363Z,100387.00
2022-09-20T05:02:24.195Z,100385.97
2022-09-20T05:05:51.394Z,100387.69
2022-09-20T05:09:29.537Z,100392.03
2022-09-20T05:12:54.563Z,100389.09
2022-09-20T05:16:03.247Z,100390.88
2022-09-20T05:19:08.905Z,100386.37
2022-09-20T05:22:48.406Z,100387.88
2022-09-20T05:26:08.541Z,100379.56
2022-09-20T05:29:28.946Z,100390.81
2022-09-20T05:32:42.338Z,100389.84
2022-09-20T05:36:06.324Z,100385.87
2022-09-20T05:39:28.606Z,100391.12
2022-09-20T05:43:11.937Z,100392.84
2022-09-20T05:46:40.529Z,100400.22
2022-09-20T05:49:58.240Z,100408.94
2022-09-20T05:57:12.306Z,100409.38
2022-09-20T06:00:19.737Z,100414.75
2022-09-20T06:30:24.626Z,100410.03
2022-09-20T06:33:30.163Z,100409.50
2022-09-20T06:40:52.127Z,100420.34
2022-09-20T08:42:27.199Z,100491.88
2022-09-20T08:45:34.758Z,100490.47
2022-09-20T08:48:41.868Z,100491.56
2022-09-20T08:59:31.399Z,100494.56
2022-09-20T09:02:34.451Z,100487.84
2022-09-20T09:05:49.176Z,100486.28
2022-09-20T09:08:53.872Z,100487.44
2022-09-20T09:11:58.867Z,100480.75
2022-09-20T09:15:29.256Z,100487.75
2022-09-20T09:18:43.824Z,100483.59
2022-09-20T09:21:46.619Z,100478.38
2022-09-20T09:25:16.902Z,100481.63
2022-09-20T09:28:24.106Z,100472.72
2022-09-20T09:31:29.551Z,100468.53
2022-09-20T09:34:35.356Z,100476.53
2022-09-20T09:37:39.034Z,100467.34
2022-09-20T09:52:16.743Z,100463.25
2022-09-20T10:17:57.431Z,100457.41
2022-09-20T10:21:07.808Z,100453.63
2022-09-20T10:24:34.745Z,100458.72
2022-09-20T10:28:03.374Z,100464.63
2022-09-20T10:31:14.102Z,100461.47
2022-09-20T10:34:32.119Z,100458.25
2022-09-20T10:38:01.028Z,100454.09
2022-09-20T10:41:31.655Z,100444.88
2022-09-20T10:45:06.561Z,100453.00
2022-09-20T10:48:18.161Z,100445.69
2022-09-20T10:51:45.998Z,100444.22
2022-09-20T11:06:39.454Z,100423.75
2022-09-20T11:10:24.298Z,100439.28
2022-09-20T11:21:21.971Z,100443.25
2022-09-20T11:24:37.010Z,100433.44
2022-09-20T11:35:22.390Z,100436.44
2022-09-20T11:38:40.298Z,100435.56
2022-09-20T11:49:20.652Z,100422.03
2022-09-20T11:53:11.486Z,100425.44
2022-09-20T11:56:14.011Z,100412.63
2022-09-20T11:59:39.650Z,100414.44
2022-09-20T12:14:01.708Z,100386.03
2022-09-20T12:17:05.465Z,100395.50
2022-09-20T12:20:33.081Z,100393.97
2022-09-20T12:23:42.392Z,100395.69
2022-09-20T12:26:46.074Z,100389.78
2022-09-20T12:30:03.348Z,100401.62
2022-09-20T12:33:20.563Z,100394.06
2022-09-20T12:36:24.159Z,100393.91
2022-09-20T12:39:31.495Z,100399.91
2022-09-20T12:46:26.731Z,100409.91
2022-09-20T12:50:08.509Z,100402.56
2022-09-20T12:53:16.761Z,100401.53
2022-09-20T12:56:26.607Z,100397.78
2022-09-20T12:59:31.095Z,100400.47
2022-09-20T13:02:52.897Z,100400.84
2022-09-20T13:06:07.790Z,100389.16
2022-09-20T13:09:13.964Z,100391.75
2022-09-20T13:12:17.079Z,100401.09
2022-09-20T13:15:21.825Z,100388.91
2022-09-20T13:18:27.404Z,100393.25
2022-09-20T13:21:32.694Z,100390.84
2022-09-20T13:24:48.828Z,100389.97
2022-09-20T13:28:03.276Z,100392.53
2022-09-20T13:31:27.439Z,100397.22
2022-09-20T13:34:30.841Z,100394.31
2022-09-20T13:49:23.841Z,100395.44
2022-09-20T13:52:29.144Z,100384.66
2022-09-20T13:55:38.747Z,100389.84
2022-09-20T13:58:42.571Z,100380.22
2022-09-20T14:01:51.286Z,100386.97
2022-09-20T14:04:56.101Z,100393.56
2022-09-20T14:08:00.733Z,100392.03
2022-09-20T14:11:14.407Z,100392.47
2022-09-20T14:14:22.235Z,100398.56
2022-09-20T14:17:29.528Z,100400.47
2022-09-20T14:20:32.859Z,100398.84
2022-09-20T14:23:51.380Z,100403.63
2022-09-20T14:27:05.167Z,100397.25
2022-09-20T14:30:37.385Z,100404.03
2022-09-20T14:33:44.450Z,100410.09
2022-09-20T14:36:49.419Z,100415.97
2022-09-20T14:39:57.659Z,100419.84
2022-09-20T14:43:03.494Z,100417.44
2022-09-20T14:46:16.773Z,100423.03
2022-09-20T14:49:19.669Z,100424.53
2022-09-20T14:52:38.616Z,100428.62
2022-09-20T14:56:06.843Z,100421.41
2022-09-20T14:59:11.628Z,100421.41
2022-09-20T15:02:15.651Z,100417.13
2022-09-20T15:05:23.881Z,100427.31
2022-09-20T15:08:27.405Z,100424.34
2022-09-20T15:11:30.008Z,100429.41
2022-09-20T15:14:37.449Z,100438.84
2022-09-20T15:17:43.833Z,100441.50
2022-09-20T15:20:49.351Z,100436.47
2022-09-20T15:23:52.225Z,100449.38
2022-09-20T15:26:54.974Z,100448.94
2022-09-20T15:29:57.394Z,100461.00
2022-09-20T15:33:03.010Z,100457.75
2022-09-20T15:36:06.101Z,100457.41
2022-09-20T15:39:09.219Z,100457.25
2022-09-20T15:42:11.662Z,100467.28
2022-09-20T15:45:14.799Z,100467.47
2022-09-20T15:48:22.435Z,100471.50
